FAI orgVALCOMINO CUP 2019AeC Lega Piloti ASDASD ClubPR

Val Comino CUP 2019 - Campionato italiano

2019-08-25 to 2019-08-31, FAI Category 2 event

27/08/2019 - Task 3 – Open

2019-08-27 27/08/2019 - Task 3

Race to Goal 68.7 km

Official

No Leg Dist. Id Radius Open Close Coordinates Altitude
1 0.0 km D015 400 m 12:55 14:55 Lat: 41.67772 Lon: 13.87242 1265 m
2 SS 0.6 km D015 1000 m 14:15 20:00 Lat: 41.67772 Lon: 13.87242 1265 m
3 7.6 km A001 400 m 14:15 20:00 Lat: 41.70205 Lon: 13.78014 431 m
4 9.6 km B040 400 m 14:15 20:00 Lat: 41.70854 Lon: 13.7594 570 m
5 22.2 km B061 6000 m 14:15 20:00 Lat: 41.80182 Lon: 13.57423 440 m
6 43.5 km B109 10000 m 14:15 20:00 Lat: 41.5475 Lon: 13.86163 120 m
7 57.6 km B116 12000 m 14:15 20:00 Lat: 41.69401 Lon: 13.48488 450 m
8 ES 67.7 km B033 800 m 14:15 20:00 Lat: 41.6726 Lon: 13.75187 435 m
9 68.7 km A010 200 m 14:15 20:00 Lat: 41.68788 Lon: 13.75389 420 m
StartGate(s): 14:15

# Id Name Nat Glider Sponsor SS ES Time km/h Distance Dist.
Points
Lead.
Points
Time
Points
Total
1 113 Marco BUSETTA M ITA Ozone Enzo 3 Bullet Speedbar - Ilpistacchio.It 14:15:00 16:14:00 01:59:00 33.8 68.67 377.4 159.0 463.6 1000
2 124 Gabriele D'ARRIGO M ITA Ozone Enzo 3 Brasulrecca - Ai Pini 14:15:00 16:19:01 02:04:01 32.5 68.67 377.4 137.8 419.6 935
3 171 Luciano PAGNONI M ITA Ozone Enzo 3 Www.Lisen.It 14:15:00 16:19:09 02:04:09 32.4 68.67 377.4 137.1 418.6 933
4 183 Marek ROBEL M POL UP Guru Diagmatic 14:15:00 16:21:09 02:06:09 31.9 68.67 377.4 137.9 404.4 920
5 180 Alfio RAGAGLIA M ITA Ozone Enzo 3 14:15:00 16:24:10 02:09:10 31.2 68.67 377.4 141.5 384.2 903
6 198 Biagio Alberto VITALE M ITA Ozone Enzo 3 Aire Corbelli Dmd Casarini Tana Del Riccio Infopro 14:15:00 16:24:57 02:09:57 31.0 68.67 377.4 137.4 379.2 894
6 156 Marco LITTAMÈ M ITA Flow Spectra Luca-Lisa 14:15:00 16:25:41 02:10:41 30.8 68.67 377.4 142.0 374.5 894
8 184 Elio ROSSI M ITA Ozone Enzo 3 Didiemme 14:15:00 16:27:15 02:12:15 30.4 68.67 377.4 142.2 364.6 884
9 129 Paolo FACCHINI M ITA GIN Boomerang 11 / 14:15:00 16:26:52 02:11:52 30.5 68.67 377.4 138.8 367.0 883
10 150 Slawomir KACZYNSKI M POL Ozone Enzo 3 Etu 14:15:00 16:26:39 02:11:39 30.6 68.67 377.4 134.5 368.4 880
11 161 Maurizio MAINA M ITA Ozone Enzo 3 Floricoltura Pecettese 14:15:00 16:26:58 02:11:58 30.5 68.67 377.4 133.7 366.4 878
12 163 Luca MAMMUCARI M ITA Flow Spectra 14:15:00 16:27:19 02:12:19 30.4 68.67 377.4 133.2 364.2 875
13 111 Federico BROWN MANZONE M ITA Ozone Enzo 3 Nuddu E Nenti 14:15:00 16:26:10 02:11:10 30.7 68.67 377.4 123.2 371.4 872
14 133 Alessandro FUZZI M ITA Ozone Zeno 14:15:00 16:27:10 02:12:10 30.5 68.67 377.4 123.9 365.2 867
15 192 Uwe TILLMANN M GER Ozone Enzo 3 14:15:00 16:31:26 02:16:26 29.5 68.67 377.4 149.4 339.2 866
16 118 Alberto CASTAGNA M ITA Ozone Zeno Www.Ti-Srl.Ti 14:15:00 16:27:54 02:12:54 30.3 68.67 377.4 126.4 360.6 864
17 197 Paolo VERATTI M ITA Ozone Zeno 14:15:00 16:28:40 02:13:40 30.1 68.67 377.4 129.3 355.9 863
17 194 Tiziano TRAMBAIOLI M ITA Flow Spectra Flow Paragliders 14:15:00 16:27:39 02:12:39 30.3 68.67 377.4 123.0 362.2 863
19 105 Loris BERTA M ITA Ozone Enzo 3 Compass 14:15:00 16:28:26 02:13:26 30.2 68.67 377.4 126.0 357.3 861
19 149 Cristian INVERARDI M ITA Niviuk Icepeak Evox Nbb Infinity 14:15:00 16:27:16 02:12:16 30.4 68.67 377.4 119.4 364.5 861
19 114 Silvia BUZZI FERRARIS F ITA Ozone Enzo 3 Pandolf-Fly 14:15:00 16:29:06 02:14:06 30.0 68.67 377.4 129.9 353.2 861
22 119 Ivan CENTA M ITA Ozone Mantra M7 Superfly 360 Team Alpenplus 14:15:00 16:28:26 02:13:26 30.2 68.67 377.4 123.5 357.3 858
23 143 Antonio GOLFARI M ITA Ozone Zeno 14:15:00 16:27:14 02:12:14 30.4 68.67 377.4 112.6 364.7 855
24 186 Andrea SAIONI M ITA Ozone Mantra M7 Para Delta Club Feltre 14:15:00 16:29:12 02:14:12 30.0 68.67 377.4 112.5 352.6 843
25 181 Massimo RAPARI M ITA Ozone Zeno 14:15:00 16:30:28 02:15:28 29.7 68.67 377.4 119.6 345.0 842
26 195 Marco VALENTINI M ITA Ozone Zeno Malloy 14:15:00 16:33:23 02:18:23 29.1 68.67 377.4 133.4 327.7 839
27 155 Cyril LAMBERT M FRA UP Guru Up 14:15:00 16:33:02 02:18:02 29.2 68.67 377.4 127.9 329.8 835
28 200 Paolo ZAMMARCHI M ITA GIN Boomerang 11 Pel-Team Sv-Check Point Cornizzolo 14:15:00 16:31:38 02:16:38 29.5 68.67 377.4 117.1 338.0 833
28 193 Moreno TONIN M ITA Ozone Zeno 14:15:00 16:32:33 02:17:33 29.3 68.67 377.4 122.5 332.6 833
28 122 Gianfranco CRESTANI M ITA Flow XC RACER Fado’ Pub Compass 14:15:00 16:32:51 02:17:51 29.2 68.67 377.4 124.3 330.8 833
31 174 Piergiorgio PINTOSSI M ITA Ozone Zeno Pel 14:15:00 16:32:55 02:17:55 29.2 68.67 377.4 124.6 330.4 832
32 172 Luca PAOLETTI M ITA Ozone Zeno 14:15:00 16:33:17 02:18:17 29.1 68.67 377.4 120.1 328.3 826
33 190 Evangelos STAMELLOS M GRE GIN Leopard Www.O2Paragliding.Gr 14:15:00 16:34:56 02:19:56 28.8 68.67 377.4 127.2 318.7 823
34 140 Andrea GAROLLA M ITA Ozone Enzo 3 No 14:15:00 16:30:23 02:15:23 29.7 68.67 377.4 99.4 345.5 822
35 151 Ioannis KARASIMOS M GRE GIN Boomerang Oxygenparagliding.Gr 14:15:00 16:33:52 02:18:52 29.0 68.67 377.4 117.7 324.9 820
36 168 Federico NEVASTRO M ITA Swing Agera RS Omnia Costruzioni 14:15:00 16:35:36 02:20:36 28.6 68.67 377.4 112.8 314.9 805
37 188 Walter SCHERLIN M ITA Ozone Enzo 3 14:15:00 16:39:52 02:24:52 27.8 68.67 377.4 123.4 290.8 792
38 139 Gabriele GARDINI M ITA Flow Spectra Fluo Flights 14:15:00 16:41:38 02:26:38 27.5 68.67 377.4 107.2 281.0 766
39 125 Didier DE SAINT ETIENNE M FRA UP Guru No 14:15:00 16:43:38 02:28:38 27.1 68.67 377.4 104.5 270.0 752
40 137 Luciano GALLO M ITA Ozone Enzo 3 14:15:00 16:42:11 02:27:11 27.3 68.67 377.4 94.8 277.9 750
41 135 Michele GAIBA M ITA Ozone Zeno My Iban Spa 14:15:00 16:46:56 02:31:56 26.5 68.67 377.4 104.8 252.2 734
42 112 Bruno BRUGNOLO M ITA GIN Boomerang 11 Compass - Next Generation Fight Instruments 14:15:00 16:46:08 02:31:08 26.6 68.67 377.4 94.1 256.5 728
43 123 Giorgio DARRA M ITA Niviuk Icepeak Evox Pel 14:15:00 16:47:54 02:32:54 26.3 68.67 377.4 102.7 247.0 727
44 199 Davide ZALTRON M ITA Ozone Zeno Io Lo Porto A Casa 14:15:00 16:51:13 02:36:13 25.8 68.67 377.4 117.1 229.5 724
45 148 Bence HALASZ M HUN Ozone Zeno 14:15:00 16:49:57 02:34:57 26.0 68.67 377.4 97.9 236.2 712
46 158 Carel LUEBBIG M SUI Flow Spectra Flyproducts.Ch 14:15:00 16:49:43 02:34:43 26.0 68.67 377.4 90.8 237.4 706
47 185 Antonio RUTA M ITA Ozone Enzo 3 Ass Altivoli 14:15:00 16:50:20 02:35:20 25.9 68.67 377.4 90.2 234.2 702
48 107 Oliver BLONSKE M GER Flow XC Racer Mwz 24 14:15:00 16:46:17 02:31:17 26.6 68.67 377.4 65.9 255.7 699
49 182 Luca RIZZO M ITA Ozone Zeno 14:15:00 16:48:41 02:33:41 26.2 68.67 377.4 73.0 242.9 693
50 134 Richárd GABRIELI M HUN Niviuk Peak 4 Flyaway 14:15:00 16:49:51 02:34:51 26.0 68.67 377.4 74.2 236.7 688
50 145 Federico GUATTERI M ITA Ozone Zeno Elettromeccanica Medici 14:15:00 16:50:58 02:35:58 25.8 68.67 377.4 80.2 230.8 688
52 102 Matteo BACCHIOCCHI M ITA UP Meru Omfcrushingplants 14:15:00 16:52:18 02:37:18 25.6 68.67 377.4 80.1 223.9 681
53 120 Rodrigue CHER M FRA Ozone Zeno 14:15:00 16:52:57 02:37:57 25.5 68.67 377.4 81.0 220.5 679
54 104 Hannes BAUER M ITA Flow Xc Racer 14:15:00 16:54:11 02:39:11 25.3 68.67 377.4 80.7 214.1 672
55 109 Giampietro BONARDI M ITA Flow Xc Racer Www.Svpievanisnc.It Team Sv 14:15:00 16:55:55 02:40:55 25.0 68.67 377.4 76.6 205.1 659
56 152 Jacek KRZYZANOWSKI M POL Advance Sigma 10 Www.Poppyfarm.Pl 14:15:00 17:06:08 02:51:08 23.5 68.67 377.4 116.3 153.6 647
57 117 Mirco CASARINI M ITA Ozone Zeno No 14:15:00 17:00:11 02:45:11 24.4 68.67 377.4 83.6 183.4 644
58 176 Alessandro POMPEI M ITA Ozone Delta 3 14:15:00 17:01:14 02:46:14 24.2 68.67 377.4 65.8 178.1 621
59 154 Sandy LAMBERT F FRA Ozone Mantra M7 14:15:00 17:03:59 02:48:59 23.8 68.67 377.4 74.5 164.3 616
60 165 Yevgen MIKHALCHUK M UKR Skywalk Poison X-alps 14:15:00 17:05:19 02:50:19 23.6 68.67 377.4 69.1 157.7 604
61 136 Bartek GALANTY M POL Triple Seven Queen 2 14:15:00 17:07:24 02:52:24 23.3 68.67 377.4 67.3 147.3 592
62 160 Alessandro MADALUNI M ITA Ozone Rush 5 My Wife. 14:15:00 17:09:23 02:54:23 23.1 68.67 377.4 49.8 137.6 565
63 178 Gianbasilio PROFITI M ITA GIN Boomerang 11 Auri 14:15:00 67.21 369.4 139.4 509
64 110 Michele BOSCHI M ITA UP Guru Up Paragliders - Sport Professional - Paradelta - Digifly - Aeci - Corsair - Air 14:15:00 66.29 364.3 138.3 503
65 187 Roberto SALSI M ITA Ozone Mantra M7 Zenit Formazione 14:15:00 17:23:54 03:08:54 21.3 68.67 377.4 49.2 67.8 494
66 201 Lorenzo ZAMPROGNO M ITA Ozone Mantra M7 Io 14:15:00 17:26:33 03:11:33 21.0 68.67 377.4 60.2 55.3 493
66 167 Giuliano MINUTELLA M ITA Flow Spectra Eo Corp Ciro Spataro Medical Device Kortel 14:15:00 66.82 367.3 125.2 493
68 127 Angelo DELL'AIRA M ITA Ozone Zeno Idrotech 14:15:00 66.82 367.2 124.0 491
69 162 Andreas MALECKI M GER Ozone Enzo 3 Mwz 24 Flugschule-Chiemsee.De Ozone Dhv 14:15:00 16:35:15 02:20:15 28.7 67.24 369.5 120.9 490
70 175 Fulvio POLCINI M ITA Ozone Enzo 3 14:15:00 58.74 322.8 133.2 456
71 153 Jakub KWIATKOWSKI M POL UP Trango X-Race Gcg 14:15:00 62.87 345.5 102.1 448
72 132 Roberto FORTI M ITA Ozone Zeno 14:15:00 17:37:13 03:22:13 19.9 68.67 377.4 61.0 5.9 444
73 179 Stefano PUCCI M ITA Ozone Zeno My Wife 14:15:00 61.24 336.6 100.4 437
73 146 Remo GUCCIARDI M ITA Ozone Zeno Io 14:15:00 61.66 338.9 98.1 437
75 144 Rasa GRIGORAITIENE F LTU Ozone Zeno Abipa 14:15:00 61.54 338.2 87.8 426
76 166 Mike MILLER M GBR UP Meru Up Paragliders Uk 14:15:00 58.27 320.2 101.8 422
77 203 Matteo SIRAGNA M ITA Ozone Mantra 7 Bar Gallo Case Rosse Selvarek 14:15:00 59.55 327.3 90.5 418
78 191 Martin STECHER M ITA UP Trango X-Race *** Speck && Kaas *** 14:15:00 64.44 354.1 57.8 412
79 142 Matteo GIULIANI M ITA Niviuk Artik 4 14:15:00 63.51 349.0 60.2 409
80 189 Heinz SENONER M ITA GIN Explorer 14:15:00 17:51:59 03:36:59 18.6 68.67 377.4 28.7 406
80 108 Gabriele BONAFINI M ITA Advance Sigma 10 14:15:00 63.69 350.0 56.3 406
82 116 Tommaso CARLINI M ITA Ozone Delta 3 14:15:00 63.83 350.8 50.6 401
83 159 Jan LUEBBIG M SUI Flow Spectra Flyproducts.Ch 14:15:00 64.17 352.7 37.6 390
84 126 Tudor DOROBANTU M ROU UP Meru Slavia Pharm , Tellur , Masina Engineering 14:15:00 51.18 281.3 89.3 371
85 177 Martin PRINOTH M ITA Niviuk Artik P 4 Sangemini 14:15:00 57.81 317.7 49.9 368
86 164 Michele MIEGGE M ITA Ozone Alpina Io 14:15:00 58.07 319.2 44.9 364
87 170 Paul Daniel PADURARU M ITA Ozone Alpina 3 Pro Blade Service. Orbital Italia. Slashto. I Falchi Di Federico 14:15:00 50.70 278.7 67.6 346
88 138 Eugenio GAMBARI M ITA Flow Spectra 14:15:00 40.27 221.3 49.9 271
89 130 Marco FLANDINA M ITA Ozone Rush 5 14:15:00 45.05 247.6 17.9 266
90 101 Marco ALESSANDRINI M ITA Ozone Zeno Www.Concadoro.Com 14:15:00 40.37 221.9 41.3 263
91 169 Angela OLVBACK F ITA Skywalk Chili 4 Giuliano Minutella 14:15:00 42.72 234.8 235
92 202 Agata KOWALSKA F POL 777 Queen 2 14:15:00 36.48 200.5 201
93 141 Marco GENTILINI M ITA Flow XC Racer 14:15:00 18.01 99.0 99
94 196 Alessandro VALLERO M ITA Ozone Zeno Vairbration 14:15:00 13.96 76.7 77
95 121 Roberto COSTANTINO M ITA Ozone Enzo 3 14:15:00 12.83 70.5 71
96 173 Flavio PERONA M ITA Advance Omega XAlp 2 Vairbration 14:15:00 9.72 53.4 53
97 131 Giovanni FONTANESI M ITA UP Meru Magari 5.00 27.5 28
97 106 Daniele BEVILACQUA M ITA Flow Xc Racer 5.00 27.5 28
97 103 Fabio BALZARANI M ITA Ozone Enzo 3 Me 5.00 27.5 28

Pilots absent from task (ABS)

Id Name
115 Vadym BYELKIN
128 Normann D'ORLANDO
147 Alessio GUIDI
157 Walter LO GIUDICE
204 Sergio DI FAZIO

Pilots not yet processed (NYP)

Id Name

Task statistics

param value
ss_distance 67.085
task_distance 68.67
launch_to_ess_distance 67.685
no_of_pilots_present 99
no_of_pilots_flying 99
no_of_pilots_lo 33
no_of_pilots_reaching_nom_dist 88
no_of_pilots_reaching_es 67
no_of_pilots_reaching_goal 66
sum_flown_distance 6088.437
best_dist 68.67
best_time 1.98333333333333
worst_time 3.61638888888889
no_of_pilots_in_competition 104
no_of_pilots_landed_before_stop 0
sum_dist_over_min 5607.327
sum_real_dist_over_min 5607.327
sum_flown_distances 6088.437
best_real_dist 68.67
last_start_time 2019-08-27T14:15:00+02:00
first_start_time 2019-08-27T14:15:00+02:00
first_finish_time 2019-08-27T16:14:00+02:00
max_time_to_get_time_points 3.39164201161851
no_of_pilots_with_time_points 65
goalratio 0.666666666666667
arrival_weight 0
departure_weight 0
leading_weight 0.108953703703704
time_weight 0.513638888888889
distance_weight 0.377407407407408
smallest_leading_coefficient 1.20694800132235
available_points_distance 377.407407407408
available_points_time 463.638888888889
available_points_departure 0
available_points_leading 158.953703703704
available_points_arrival 0
time_validity 1
launch_validity 1
distance_validity 1
stop_validity 1
day_quality 1
ftv_day_validity 1
time_points_stop_correction 0

Scoring formula settings

param value
id PWC2017
min_dist 5
nom_dist 45
nom_time 1.5
nom_launch 0.96
nom_goal 0.3
day_quality_override 0
bonus_gr 4
jump_the_gun_factor 0
jump_the_gun_max 0
normalize_1000_before_day_quality 0
time_points_if_not_in_goal 0
use_1000_points_for_max_day_quality 0
use_arrival_position_points 0
use_arrival_time_points 0
use_departure_points 0
use_difficulty_for_distance_points 0
use_distance_points 1
use_distance_squared_for_LC 1
use_leading_points 1
use_semi_circle_control_zone_for_goal_line 1
use_time_points 1
scoring_altitude GPS
final_glide_decelerator none
no_final_glide_decelerator_reason
min_time_span_for_valid_task 60
score_back_time 5
use_proportional_leading_weight_if_nobody_in_goal 0
leading_weight_factor 1
turnpoint_radius_tolerance 0.001
Report created: 2019-08-27T19:31:59+02:00

FS development, maintenance and support by